Time;durP1;ratioP1;P1;durP2;ratioP2;P2;SDS_P1;SDS_P2;PMS_P1;PMS_P2;Temp;Humidity;BMP_temperature;BMP_pressure;BME280_temperature;BME280_humidity;BME280_pressure;Samples;Min_cycle;Max_cycle;Signal;HPM_P1;HPM_P2
2022/07/27 00:01:13;;;;;;;3.67;1.40;;;;;;;14.82;100.00;101931.34;5210331;28;20030;-72
2022/07/27 00:03:44;;;;;;;;;;;;;;;15.49;93.12;101924.63;5212323;28;20076;-72
2022/07/27 00:06:16;;;;;;;3.15;1.23;;;;;;;14.79;100.00;101927.16;5211136;28;20395;-72
2022/07/27 00:08:47;;;;;;;3.97;1.70;;;;;;;14.78;100.00;101922.84;5211014;28;20060;-72
2022/07/27 00:11:18;;;;;;;5.93;1.80;;;;;;;14.79;100.00;101923.69;5210577;28;20045;-72
2022/07/27 00:13:49;;;;;;;6.05;1.77;;;;;;;14.77;100.00;101928.25;5209189;28;20026;-72
2022/07/27 00:16:21;;;;;;;4.38;1.90;;;;;;;14.74;100.00;101918.81;5212375;28;20053;-72
2022/07/27 00:18:52;;;;;;;4.25;2.03;;;;;;;14.70;100.00;101908.63;5211599;28;20032;-72
2022/07/27 00:21:25;;;;;;;4.15;1.42;;;;;;;14.70;100.00;101920.03;5211327;28;20030;-72
2022/07/27 00:23:56;;;;;;;;;;;;;;;15.31;95.86;101927.94;5211002;28;20598;-72
2022/07/27 00:26:27;;;;;;;4.23;1.70;;;;;;;14.60;100.00;101917.34;5201891;28;19913;-72
2022/07/27 00:28:59;;;;;;;4.30;1.65;;;;;;;14.55;100.00;101922.19;5207319;28;21643;-72
2022/07/27 00:31:30;;;;;;;5.53;1.85;;;;;;;14.49;100.00;101925.31;5208049;28;20037;-72
2022/07/27 00:34:01;;;;;;;3.63;1.83;;;;;;;14.44;100.00;101926.66;5210964;28;20079;-72
2022/07/27 00:36:33;;;;;;;5.30;2.03;;;;;;;14.38;100.00;101932.44;5208585;28;20483;-72
2022/07/27 00:39:04;;;;;;;6.32;2.40;;;;;;;14.25;100.00;101924.72;5208338;28;20482;-72
2022/07/27 00:41:35;;;;;;;4.50;2.05;;;;;;;14.25;100.00;101920.28;5208555;28;20865;-72
2022/07/27 00:44:07;;;;;;;4.20;1.95;;;;;;;14.24;100.00;101923.03;5210055;28;20052;-72
2022/07/27 00:46:38;;;;;;;6.32;2.55;;;;;;;14.14;100.00;101920.34;5210049;28;20033;-72
2022/07/27 00:49:09;;;;;;;5.13;2.00;;;;;;;14.15;100.00;101926.44;5210643;28;20026;-72
2022/07/27 00:51:40;;;;;;;3.10;1.90;;;;;;;14.12;100.00;101916.97;5204912;28;20053;-72
2022/07/27 00:54:12;;;;;;;3.85;1.70;;;;;;;14.09;100.00;101926.00;5209575;28;20037;-72
2022/07/27 00:56:43;;;;;;;4.65;2.13;;;;;;;14.10;100.00;101932.94;5208124;28;20033;-72
2022/07/27 00:59:14;;;;;;;4.55;2.00;;;;;;;14.03;100.00;101915.94;5209201;28;20037;-72
2022/07/27 01:01:46;;;;;;;5.03;1.70;;;;;;;14.05;100.00;101914.03;5210581;28;20072;-72
2022/07/27 01:04:17;;;;;;;5.35;2.15;;;;;;;13.97;100.00;101920.88;5210151;28;20045;-72
2022/07/27 01:06:48;;;;;;;3.00;2.03;;;;;;;14.00;100.00;101921.47;5209494;28;20117;-72
2022/07/27 01:12:19;;;;;;;5.18;2.10;;;;;;;14.00;100.00;101921.47;5204716;28;20039;-72
2022/07/27 01:14:51;;;;;;;3.03;1.67;;;;;;;13.87;100.00;101921.63;5209129;28;20045;-72
2022/07/27 01:17:29;;;;;;;3.58;1.70;;;;;;;13.92;100.00;101921.25;5211295;28;20026;-72
2022/07/27 01:20:00;;;;;;;7.00;2.13;;;;;;;13.91;100.00;101916.97;5209772;28;20018;-72
2022/07/27 01:22:32;;;;;;;5.18;1.80;;;;;;;13.85;100.00;101914.81;5214641;28;20080;-72
2022/07/27 01:25:03;;;;;;;5.60;2.03;;;;;;;13.79;100.00;101910.91;5214853;28;20112;-72
2022/07/27 01:27:34;;;;;;;3.85;1.98;;;;;;;13.77;100.00;101915.44;5213795;28;20029;-72
2022/07/27 01:33:07;;;;;;;5.10;2.05;;;;;;;13.85;100.00;101923.53;5213658;28;20026;-72
2022/07/27 01:35:39;;;;;;;3.65;1.92;;;;;;;13.73;100.00;101918.44;5212311;28;20132;-72
2022/07/27 01:38:11;;;;;;;7.40;2.28;;;;;;;13.51;100.00;101917.53;5209531;28;20038;-72
2022/07/27 01:40:42;;;;;;;6.55;2.55;;;;;;;13.53;100.00;101914.81;5214701;28;20399;-72
2022/07/27 01:43:13;;;;;;;4.13;2.10;;;;;;;13.44;100.00;101912.88;5214047;28;20041;-72
2022/07/27 01:45:44;;;;;;;5.30;2.08;;;;;;;13.45;100.00;101911.91;5213521;28;20029;-72
2022/07/27 01:48:16;;;;;;;6.13;2.00;;;;;;;13.28;100.00;101914.09;5212718;28;20530;-72
2022/07/27 01:50:49;;;;;;;4.85;2.60;;;;;;;13.24;100.00;101912.69;5209760;28;20022;-72
2022/07/27 01:53:22;;;;;;;6.22;1.92;;;;;;;13.26;100.00;101909.91;5212507;28;20045;-72
2022/07/27 01:55:53;;;;;;;5.00;2.30;;;;;;;13.14;100.00;101904.66;5213871;28;20080;-72
2022/07/27 01:58:24;;;;;;;5.47;2.28;;;;;;;13.19;100.00;101912.19;5214121;28;20280;-72
2022/07/27 02:00:55;;;;;;;5.10;2.35;;;;;;;13.18;100.00;101910.50;5211162;28;20028;-72
2022/07/27 02:03:27;;;;;;;5.47;2.30;;;;;;;13.18;100.00;101913.13;5212271;28;20030;-72
2022/07/27 02:05:58;;;;;;;3.78;2.13;;;;;;;13.15;100.00;101911.59;5214008;28;20049;-72
2022/07/27 02:08:31;;;;;;;3.38;1.90;;;;;;;13.08;100.00;101906.94;5212819;28;20084;-72
2022/07/27 02:13:52;;;;;;;4.40;1.90;;;;;;;13.10;100.00;101911.09;5214435;28;20042;-72
2022/07/27 02:16:23;;;;;;;4.18;2.03;;;;;;;13.13;100.00;101905.59;5210661;28;20534;-72
2022/07/27 02:18:54;;;;;;;6.68;2.35;;;;;;;13.05;100.00;101900.09;5210625;28;20045;-72
2022/07/27 02:21:26;;;;;;;6.13;2.42;;;;;;;12.99;100.00;101897.09;5214105;28;20041;-72
2022/07/27 02:23:57;;;;;;;4.43;2.28;;;;;;;13.01;100.00;101901.31;5213733;28;20141;-71
2022/07/27 02:26:29;;;;;;;4.75;1.98;;;;;;;13.00;100.00;101897.00;5214076;28;20399;-72
2022/07/27 02:29:00;;;;;;;6.55;2.17;;;;;;;12.99;100.00;101899.75;5204496;28;20330;-71
2022/07/27 02:31:31;;;;;;;5.10;2.25;;;;;;;12.83;100.00;101893.03;5210851;28;20030;-71
2022/07/27 02:34:03;;;;;;;4.95;2.42;;;;;;;12.89;100.00;101897.84;5213970;28;20050;-71
2022/07/27 02:36:34;;;;;;;5.55;2.28;;;;;;;12.78;100.00;101894.38;5212033;28;20212;-71
2022/07/27 02:39:05;;;;;;;6.88;2.28;;;;;;;12.83;100.00;101897.47;5211686;28;20204;-71
2022/07/27 02:41:36;;;;;;;4.32;1.98;;;;;;;12.81;100.00;101897.59;5212842;28;20431;-71
2022/07/27 02:44:08;;;;;;;4.07;2.13;;;;;;;12.85;100.00;101892.94;5213618;28;20510;-70
2022/07/27 02:46:39;;;;;;;3.85;2.10;;;;;;;12.79;100.00;101894.25;5210635;28;20048;-71
2022/07/27 02:49:11;;;;;;;5.57;2.33;;;;;;;12.67;100.00;101887.31;5212479;28;20161;-70
2022/07/27 02:51:42;;;;;;;3.78;2.28;;;;;;;12.74;100.00;101892.94;5211717;28;20025;-70
2022/07/27 02:54:13;;;;;;;5.70;2.38;;;;;;;12.70;100.00;101900.22;5210664;28;20488;-70
2022/07/27 02:56:45;;;;;;;5.65;2.40;;;;;;;12.66;100.00;101888.28;5212567;28;20025;-70
2022/07/27 02:59:17;;;;;;;5.32;2.50;;;;;;;12.66;100.00;101899.63;5212894;28;20556;-70
2022/07/27 03:01:48;;;;;;;4.17;2.50;;;;;;;12.63;100.00;101881.44;5212232;28;20024;-71
2022/07/27 03:04:19;;;;;;;4.85;2.40;;;;;;;12.65;100.00;101897.09;5209548;28;20491;-70
2022/07/27 03:06:51;;;;;;;5.72;2.50;;;;;;;12.63;100.00;101893.75;5212253;28;20025;-70
2022/07/27 03:09:22;;;;;;;7.72;2.65;;;;;;;12.62;100.00;101899.97;5212875;28;20371;-70
2022/07/27 03:11:53;;;;;;;4.40;2.15;;;;;;;12.61;100.00;101900.91;5212192;28;20083;-71
2022/07/27 03:14:25;;;;;;;4.97;2.50;;;;;;;12.62;100.00;101903.44;5210389;28;20037;-70
2022/07/27 03:16:56;;;;;;;7.70;2.30;;;;;;;12.57;100.00;101904.72;5212466;28;20025;-70
2022/07/27 03:19:27;;;;;;;7.30;2.67;;;;;;;12.48;100.00;101889.66;5209167;28;20501;-70
2022/07/27 03:21:58;;;;;;;4.32;2.33;;;;;;;12.58;100.00;101909.06;5211488;28;20030;-70
2022/07/27 03:24:30;;;;;;;5.43;2.60;;;;;;;12.55;100.00;101901.41;5212863;28;20064;-71
2022/07/27 03:27:01;;;;;;;4.45;2.58;;;;;;;12.52;100.00;101899.00;5211413;28;20099;-70
2022/07/27 03:29:32;;;;;;;4.82;2.35;;;;;;;12.49;100.00;101904.47;5212103;28;20072;-70
2022/07/27 03:32:04;;;;;;;3.58;2.50;;;;;;;12.45;100.00;101890.72;5211493;28;20025;-71
2022/07/27 03:34:35;;;;;;;6.07;2.42;;;;;;;12.36;100.00;101899.31;5207808;28;20034;-71
2022/07/27 03:37:07;;;;;;;5.80;2.47;;;;;;;12.40;100.00;101909.47;5212558;28;20044;-71
2022/07/27 03:39:38;;;;;;;4.50;2.45;;;;;;;12.36;100.00;101888.81;5211531;28;20430;-71
2022/07/27 03:42:11;;;;;;;4.78;2.60;;;;;;;12.31;100.00;101902.31;5211098;28;20456;-71
2022/07/27 03:44:42;;;;;;;6.03;2.53;;;;;;;12.31;100.00;101904.94;5206570;28;20029;-71
2022/07/27 03:47:14;;;;;;;4.90;2.38;;;;;;;12.31;100.00;101902.31;5212582;28;20025;-71
2022/07/27 03:49:46;;;;;;;5.78;2.65;;;;;;;12.32;100.00;101896.09;5208571;28;20054;-71
2022/07/27 03:52:18;;;;;;;6.23;2.80;;;;;;;12.37;100.00;101903.63;5212532;28;20022;-71
2022/07/27 03:54:50;;;;;;;5.28;2.35;;;;;;;12.44;100.00;101907.47;5211676;28;20033;-71
2022/07/27 03:57:21;;;;;;;5.88;2.85;;;;;;;12.49;100.00;101901.84;5212478;28;20026;-71
2022/07/27 03:59:53;;;;;;;5.25;2.63;;;;;;;12.53;100.00;101893.59;5212308;28;20026;-71
2022/07/27 04:02:24;;;;;;;7.40;3.03;;;;;;;12.62;100.00;101907.88;5204964;28;20045;-71
2022/07/27 04:04:55;;;;;;;11.20;3.22;;;;;;;12.68;100.00;101903.91;5206609;28;20026;-71
2022/07/27 04:07:26;;;;;;;7.82;3.03;;;;;;;12.72;100.00;101905.34;5206779;28;20450;-71
2022/07/27 04:09:58;;;;;;;6.93;3.17;;;;;;;12.77;100.00;101905.84;5211239;28;20580;-71
2022/07/27 04:12:29;;;;;;;9.07;3.42;;;;;;;12.81;100.00;101907.28;5211260;28;20033;-71
2022/07/27 04:15:00;;;;;;;7.75;3.08;;;;;;;12.79;100.00;101907.38;5210037;28;20025;-71
2022/07/27 04:17:31;;;;;;;7.35;3.15;;;;;;;12.85;100.00;101906.09;5211088;28;20018;-71
2022/07/27 04:20:04;;;;;;;9.82;3.50;;;;;;;12.85;100.00;101898.19;5208703;28;20125;-71
2022/07/27 04:22:35;;;;;;;8.40;2.85;;;;;;;12.89;100.00;101903.09;5209920;28;20041;-71
2022/07/27 04:25:06;;;;;;;8.77;3.08;;;;;;;12.92;100.00;101907.28;5209381;28;20045;-70
2022/07/27 04:27:38;;;;;;;6.88;2.67;;;;;;;12.98;100.00;101908.59;5210562;28;20029;-70
2022/07/27 04:30:09;;;;;;;5.35;2.78;;;;;;;13.01;100.00;101909.19;5209557;28;20108;-72
2022/07/27 04:32:41;;;;;;;6.43;2.60;;;;;;;13.05;100.00;101912.44;5210245;28;20125;-72
2022/07/27 04:35:12;;;;;;;5.80;2.75;;;;;;;12.96;100.00;101915.78;5210412;28;20479;-73
2022/07/27 04:37:43;;;;;;;7.05;2.63;;;;;;;13.00;100.00;101909.31;5210284;28;20474;-72
2022/07/27 04:40:15;;;;;;;5.82;2.72;;;;;;;13.03;100.00;101906.44;5211601;28;20466;-72
2022/07/27 04:42:46;;;;;;;4.85;2.60;;;;;;;12.99;100.00;101918.16;5211848;28;20125;-72
2022/07/27 04:45:17;;;;;;;5.68;2.90;;;;;;;13.06;100.00;101911.47;5209125;28;20034;-72
2022/07/27 04:47:49;;;;;;;7.13;3.33;;;;;;;13.06;100.00;101914.91;5209361;28;20034;-72
2022/07/27 04:50:20;;;;;;;7.15;3.20;;;;;;;13.06;100.00;101917.56;5210517;28;20475;-70
2022/07/27 04:52:51;;;;;;;5.43;3.17;;;;;;;13.06;100.00;101914.09;5211834;28;20474;-70
2022/07/27 04:55:23;;;;;;;8.20;3.35;;;;;;;13.08;100.00;101925.34;5210768;28;20475;-70
2022/07/27 04:57:54;;;;;;;6.82;2.95;;;;;;;13.06;100.00;101916.72;5206772;28;20037;-70
2022/07/27 05:00:25;;;;;;;8.07;3.13;;;;;;;13.10;100.00;101926.03;5211809;28;20075;-72
2022/07/27 05:02:57;;;;;;;7.65;3.60;;;;;;;13.09;100.00;101927.84;5210730;28;20041;-72
2022/07/27 05:05:28;;;;;;;7.97;3.35;;;;;;;13.09;100.00;101925.22;5210556;28;20042;-72
2022/07/27 05:07:59;;;;;;;7.38;3.20;;;;;;;13.13;100.00;101926.66;5209976;28;20026;-72
2022/07/27 05:10:31;;;;;;;5.82;3.03;;;;;;;13.12;100.00;101932.03;5210069;28;20022;-71
2022/07/27 05:13:02;;;;;;;9.48;2.80;;;;;;;13.18;100.00;101931.53;5209694;28;20025;-70
2022/07/27 05:15:33;;;;;;;8.10;3.53;;;;;;;13.22;100.00;101927.75;5205837;28;20245;-70
2022/07/27 05:18:05;;;;;;;6.10;3.50;;;;;;;13.29;100.00;101936.00;5208101;28;20428;-73
2022/07/27 05:20:36;;;;;;;10.32;4.10;;;;;;;13.30;100.00;101935.88;5205567;28;20018;-70
2022/07/27 05:23:08;;;;;;;9.38;5.70;;;;;;;13.36;100.00;101945.09;5204848;28;20041;-70
2022/07/27 05:25:39;;;;;;;11.85;6.80;;;;;;;13.41;100.00;101949.97;5208749;28;20049;-71
2022/07/27 05:28:11;;;;;;;7.82;5.93;;;;;;;13.43;100.00;101953.34;5209657;28;20033;-71
2022/07/27 05:30:42;;;;;;;10.27;4.82;;;;;;;13.43;100.00;101953.34;5210492;28;20029;-71
2022/07/27 05:33:14;;;;;;;7.90;4.32;;;;;;;13.48;100.00;101957.25;5210372;28;20415;-71
2022/07/27 05:35:45;;;;;;;7.88;3.25;;;;;;;13.53;100.00;101959.56;5210557;28;20428;-71
2022/07/27 05:38:16;;;;;;;6.50;2.88;;;;;;;13.54;100.00;101961.22;5206804;28;20084;-71
2022/07/27 05:40:48;;;;;;;6.45;3.20;;;;;;;13.59;100.00;101962.50;5208009;28;20061;-71
2022/07/27 05:43:19;;;;;;;7.18;3.00;;;;;;;13.61;100.00;101946.63;5209663;28;20092;-71
2022/07/27 05:45:50;;;;;;;6.75;2.60;;;;;;;13.67;100.00;101950.53;5206298;28;20307;-71
2022/07/27 05:48:22;;;;;;;4.88;2.78;;;;;;;13.69;100.00;101953.91;5209586;28;20041;-69
2022/07/27 05:50:53;;;;;;;6.43;2.42;;;;;;;13.74;100.00;101952.56;5209175;28;20030;-71
2022/07/27 05:53:25;;;;;;;5.63;2.50;;;;;;;13.80;100.00;101954.72;5211139;28;20033;-71
2022/07/27 05:55:56;;;;;;;9.52;2.88;;;;;;;13.90;100.00;101956.59;5205594;28;20030;-71
2022/07/27 05:58:28;;;;;;;3.72;2.40;;;;;;;14.00;100.00;101965.41;5206007;28;20083;-71
2022/07/27 06:00:59;;;;;;;6.65;2.75;;;;;;;14.06;100.00;101967.56;5204148;28;20026;-70
2022/07/27 06:03:30;;;;;;;7.68;2.67;;;;;;;14.15;100.00;101965.97;5209033;28;20062;-70
2022/07/27 06:08:53;;;;;;;6.38;2.65;;;;;;;14.36;100.00;101970.31;5211201;28;20132;-72
2022/07/27 06:11:24;;;;;;;5.65;2.70;;;;;;;14.44;100.00;101963.56;5198618;28;20060;-70
2022/07/27 06:13:55;;;;;;;6.28;2.88;;;;;;;14.57;100.00;101967.69;5212608;28;20460;-71
2022/07/27 06:16:27;;;;;;;4.68;2.58;;;;;;;14.68;100.00;101965.97;5212094;28;20113;-71
2022/07/27 06:18:58;;;;;;;5.47;2.60;;;;;;;14.79;100.00;101966.72;5209785;28;20022;-70
2022/07/27 06:21:30;;;;;;;5.35;2.65;;;;;;;14.94;100.00;101969.03;5211836;28;20080;-71
2022/07/27 06:24:02;;;;;;;6.15;2.60;;;;;;;15.14;100.00;101964.69;5214212;28;20250;-70
2022/07/27 06:26:33;;;;;;;6.57;2.40;;;;;;;15.24;100.00;101965.56;5212655;28;20050;-71
2022/07/27 06:29:04;;;;;;;8.23;2.70;;;;;;;15.42;100.00;101966.59;5212474;28;20046;-70
2022/07/27 06:31:36;;;;;;;4.85;2.00;;;;;;;15.45;100.00;101962.84;5207107;28;20080;-71
2022/07/27 06:34:07;;;;;;;5.20;2.17;;;;;;;15.60;100.00;101961.50;5206975;28;20028;-70
2022/07/27 06:36:41;;;;;;;5.43;1.80;;;;;;;15.75;100.00;101964.63;5207358;28;20052;-70
2022/07/27 06:39:12;;;;;;;4.32;2.05;;;;;;;15.86;100.00;101968.94;5209827;28;20036;-71
2022/07/27 06:41:44;;;;;;;4.07;1.70;;;;;;;16.03;100.00;101961.19;5212683;28;20026;-70
2022/07/27 06:44:15;;;;;;;9.75;1.90;;;;;;;16.18;100.00;101966.91;5212685;28;20372;-71
2022/07/27 06:46:46;;;;;;;4.65;1.67;;;;;;;16.30;100.00;101968.41;5206047;28;20376;-71
2022/07/27 06:49:17;;;;;;;4.65;1.50;;;;;;;16.50;100.00;101973.69;5213514;28;20076;-71
2022/07/27 06:51:49;;;;;;;3.65;1.75;;;;;;;16.62;100.00;101969.91;5212838;28;20345;-70
2022/07/27 06:54:21;;;;;;;7.40;1.75;;;;;;;16.81;100.00;101973.50;5211057;28;20497;-70
2022/07/27 06:56:52;;;;;;;4.28;1.67;;;;;;;16.95;100.00;101971.25;5210384;28;20037;-70
2022/07/27 06:59:23;;;;;;;6.30;1.70;;;;;;;17.23;100.00;101969.44;5207454;28;20352;-70
2022/07/27 07:01:54;;;;;;;5.80;1.25;;;;;;;17.34;100.00;101967.59;5210600;28;20461;-71
2022/07/27 07:04:26;;;;;;;3.15;1.08;;;;;;;17.52;100.00;101971.97;5211798;28;20040;-71
2022/07/27 07:06:59;;;;;;;4.43;1.30;;;;;;;17.71;99.02;101978.13;5206768;28;20088;-70
2022/07/27 07:09:31;;;;;;;5.18;0.95;;;;;;;17.87;97.14;101990.75;5210747;28;20032;-70
2022/07/27 07:12:02;;;;;;;4.03;0.98;;;;;;;18.13;92.98;101982.91;5210911;28;20085;-71
2022/07/27 07:14:34;;;;;;;5.88;1.20;;;;;;;18.28;90.92;101984.03;5208625;28;20387;-71
2022/07/27 07:17:05;;;;;;;3.83;1.13;;;;;;;18.58;90.38;101971.31;5209122;28;20022;-71
2022/07/27 07:19:36;;;;;;;5.80;1.40;;;;;;;18.89;88.80;101977.03;5208770;28;20033;-71
2022/07/27 07:22:07;;;;;;;5.13;1.30;;;;;;;19.09;85.94;101982.94;5206949;28;20229;-71
2022/07/27 07:24:39;;;;;;;3.93;1.00;;;;;;;19.06;83.34;101980.63;5208986;28;20037;-71
2022/07/27 07:27:10;;;;;;;7.63;1.10;;;;;;;19.27;83.67;101974.91;5209248;28;20030;-71
2022/07/27 07:29:41;;;;;;;9.23;1.30;;;;;;;19.61;81.73;101981.00;5207335;28;20036;-71
2022/07/27 07:32:12;;;;;;;7.20;1.40;;;;;;;19.69;78.90;101981.06;5204813;28;20042;-71
2022/07/27 07:34:44;;;;;;;5.90;1.07;;;;;;;19.83;77.30;101976.94;5206918;28;20099;-71
2022/07/27 07:37:17;;;;;;;4.15;1.00;;;;;;;19.96;73.41;101986.25;5207692;28;20037;-70
2022/07/27 07:39:48;;;;;;;5.32;0.93;;;;;;;20.08;73.63;101979.66;5207520;28;20022;-71
2022/07/27 07:42:20;;;;;;;3.42;0.88;;;;;;;20.02;72.52;101983.78;5209538;28;20034;-71
2022/07/27 07:44:51;;;;;;;6.63;1.10;;;;;;;19.79;73.32;101990.72;5208898;28;20447;-71
2022/07/27 07:47:23;;;;;;;5.23;1.50;;;;;;;19.57;72.74;101992.94;5209769;28;20463;-71
2022/07/27 07:49:54;;;;;;;3.63;1.07;;;;;;;19.38;74.23;101996.69;5206644;28;20026;-71
2022/07/27 07:52:25;;;;;;;3.70;0.90;;;;;;;19.43;76.20;101999.72;5208845;28;20449;-69
2022/07/27 07:54:57;;;;;;;3.97;1.00;;;;;;;19.48;77.80;101998.41;5210195;28;20376;-71
2022/07/27 07:57:28;;;;;;;4.07;0.90;;;;;;;19.49;75.83;101998.25;5211337;28;20570;-71
2022/07/27 07:59:59;;;;;;;4.53;1.23;;;;;;;19.31;75.23;101990.34;5207337;28;20312;-71
2022/07/27 08:02:31;;;;;;;3.67;1.37;;;;;;;19.49;74.75;102002.72;5209581;28;20042;-71
2022/07/27 08:05:02;;;;;;;5.73;1.90;;;;;;;19.37;73.97;101994.22;5209581;28;20022;-71
2022/07/27 08:07:33;;;;;;;5.10;1.27;;;;;;;19.24;78.44;102012.41;5209128;28;20052;-71
2022/07/27 08:10:07;;;;;;;4.87;0.90;;;;;;;19.40;77.68;102009.84;5210912;28;20383;-71
2022/07/27 08:12:42;;;;;;;3.40;1.15;;;;;;;19.26;78.65;102002.47;5210145;28;20029;-71
2022/07/27 08:15:14;;;;;;;3.72;1.10;;;;;;;19.28;78.13;102011.09;5206891;28;20406;-71
2022/07/27 08:17:46;;;;;;;6.17;1.00;;;;;;;19.25;77.70;102017.59;5209449;28;20037;-71
2022/07/27 08:20:17;;;;;;;11.77;2.07;;;;;;;19.20;79.01;102015.38;5207319;28;20029;-71
2022/07/27 08:22:48;;;;;;;5.63;1.10;;;;;;;19.22;78.14;102017.91;5211270;28;20033;-71
2022/07/27 08:25:20;;;;;;;3.77;1.30;;;;;;;19.15;78.42;102015.03;5209353;28;20077;-71
2022/07/27 08:27:51;;;;;;;3.75;0.95;;;;;;;19.06;76.04;102010.69;5208300;28;20040;-72
2022/07/27 08:30:23;;;;;;;3.80;1.07;;;;;;;19.08;74.56;102010.50;5208708;28;20045;-69
2022/07/27 08:32:59;;;;;;;4.75;1.45;;;;;;;19.11;73.39;102012.84;5209949;28;20070;-71
2022/07/27 08:35:33;;;;;;;5.53;1.42;;;;;;;19.03;73.63;102010.16;5209116;28;20462;-70
2022/07/27 08:38:06;;;;;;;2.83;0.88;;;;;;;19.20;70.67;102002.09;5209643;28;20526;-71
2022/07/27 08:40:38;;;;;;;9.30;1.75;;;;;;;19.37;69.74;101996.88;5209668;28;20037;-71
2022/07/27 08:43:11;;;;;;;7.40;1.73;;;;;;;19.72;69.69;101993.19;5210477;28;20114;-71
2022/07/27 08:45:44;;;;;;;6.03;1.33;;;;;;;19.85;66.58;101988.25;5208450;28;20076;-71
2022/07/27 08:48:16;;;;;;;;;;;;;;;20.51;64.44;101989.16;5209860;28;20034;-71
2022/07/27 08:50:48;;;;;;;2.40;0.75;;;;;;;20.12;57.05;101995.13;5209307;28;19917;-71
2022/07/27 08:53:20;;;;;;;5.03;1.23;;;;;;;20.05;58.02;101999.44;5208093;28;20022;-71
2022/07/27 08:55:52;;;;;;;5.00;0.98;;;;;;;20.23;62.22;101991.31;5210349;28;20026;-71
2022/07/27 08:58:23;;;;;;;4.27;1.40;;;;;;;20.18;60.12;101998.94;5209377;28;20036;-71
2022/07/27 09:00:55;;;;;;;4.13;1.00;;;;;;;20.22;61.61;102004.75;5208866;28;20397;-71
2022/07/27 09:03:26;;;;;;;2.90;0.80;;;;;;;20.29;57.26;101995.94;5208960;28;20436;-71
2022/07/27 09:05:58;;;;;;;3.50;1.07;;;;;;;20.18;60.90;102014.91;5208616;28;20041;-71
2022/07/27 09:08:30;;;;;;;3.97;0.90;;;;;;;20.05;59.36;102006.56;5205653;28;20108;-72
2022/07/27 09:11:12;;;;;;;6.38;1.10;;;;;;;20.34;64.82;102006.09;5208978;28;20049;-71
2022/07/27 09:13:44;;;;;;;4.45;1.00;;;;;;;20.13;65.63;102011.91;5205308;28;20463;-71
2022/07/27 09:16:15;;;;;;;4.13;1.03;;;;;;;20.20;67.51;102004.09;5203919;28;20024;-71
2022/07/27 09:18:47;;;;;;;2.97;1.20;;;;;;;20.34;65.37;102006.09;5205151;28;20018;-71
2022/07/27 09:21:21;;;;;;;2.85;0.93;;;;;;;20.21;65.61;102003.09;5202388;28;20018;-71
2022/07/27 09:24:14;;;;;;;3.60;1.02;;;;;;;20.57;66.41;102009.78;5202620;28;20042;-71
2022/07/27 09:26:45;;;;;;;3.55;1.02;;;;;;;20.38;65.10;102010.94;5205289;28;20054;-71
2022/07/27 09:29:16;;;;;;;3.30;1.00;;;;;;;20.35;65.12;102015.75;5207031;28;20037;-71
2022/07/27 09:31:50;;;;;;;4.27;1.13;;;;;;;20.38;66.87;102015.41;5208713;28;20028;-71
2022/07/27 09:34:29;;;;;;;3.35;1.02;;;;;;;20.44;66.34;102016.56;5205619;28;20033;-71
2022/07/27 09:37:05;;;;;;;5.32;1.30;;;;;;;20.42;64.91;102011.44;5204976;28;20033;-71
2022/07/27 09:39:37;;;;;;;4.65;1.10;;;;;;;20.24;66.42;102010.75;5205965;28;20239;-71
2022/07/27 09:42:17;;;;;;;5.38;1.15;;;;;;;20.47;65.28;102013.59;5213259;28;20038;-71
2022/07/27 09:44:49;;;;;;;5.32;1.17;;;;;;;20.35;66.21;102016.59;5212118;28;20036;-71
2022/07/27 09:47:28;;;;;;;3.97;0.80;;;;;;;20.36;66.00;102010.25;5211159;28;20034;-71
2022/07/27 09:50:19;;;;;;;3.22;1.10;;;;;;;20.42;66.10;102019.41;5210963;28;20025;-71
2022/07/27 09:52:53;;;;;;;3.97;0.95;;;;;;;20.42;65.79;102006.94;5201303;28;20703;-71
2022/07/27 09:55:25;;;;;;;4.57;1.58;;;;;;;20.17;67.18;102008.75;5208090;28;20033;-71
2022/07/27 09:57:57;;;;;;;4.17;1.33;;;;;;;20.25;66.99;102009.75;5209338;28;20025;-71
2022/07/27 10:00:29;;;;;;;6.53;1.63;;;;;;;20.29;64.19;102013.75;5207659;28;20387;-71
2022/07/27 10:03:00;;;;;;;4.20;1.47;;;;;;;20.29;66.56;102014.56;5206464;28;20061;-71
2022/07/27 10:05:32;;;;;;;3.50;1.30;;;;;;;20.36;65.59;102014.75;5210346;28;20533;-71
2022/07/27 10:08:04;;;;;;;3.93;0.87;;;;;;;20.27;65.16;102015.75;5209598;28;20036;-71
2022/07/27 10:10:35;;;;;;;5.40;1.30;;;;;;;20.38;64.01;102021.59;5211257;28;20150;-71
2022/07/27 10:13:07;;;;;;;3.57;0.93;;;;;;;20.36;63.47;102014.75;5209785;28;20056;-71
2022/07/27 10:15:40;;;;;;;7.80;1.47;;;;;;;20.54;66.36;102017.28;5210016;28;20034;-71
2022/07/27 10:18:21;;;;;;;3.10;1.00;;;;;;;20.70;65.11;102019.09;5210210;28;20471;-72
2022/07/27 10:20:52;;;;;;;4.75;1.10;;;;;;;20.61;61.56;102003.13;5203194;28;20563;-72
2022/07/27 10:23:26;;;;;;;4.60;0.97;;;;;;;20.51;62.30;102007.78;5203787;28;20156;-72
2022/07/27 10:26:13;;;;;;;2.75;1.10;;;;;;;20.83;64.67;102008.75;5204809;28;20128;-72
2022/07/27 10:29:07;;;;;;;5.90;1.30;;;;;;;21.14;64.28;102001.69;5209424;28;20030;-72
2022/07/27 10:31:55;;;;;;;6.03;1.42;;;;;;;21.54;61.97;101994.53;5197567;28;20046;-72
2022/07/27 10:34:38;;;;;;;6.38;1.60;;;;;;;22.06;58.20;101998.41;5211499;28;20034;-72
2022/07/27 10:37:14;;;;;;;3.75;1.10;;;;;;;22.18;55.94;101998.84;5212687;28;20120;-72
2022/07/27 10:39:50;;;;;;;3.92;1.00;;;;;;;22.19;54.94;101984.50;5210637;28;20099;-72
2022/07/27 10:42:23;;;;;;;4.57;1.10;;;;;;;22.04;47.51;101995.91;5208927;28;20493;-71
2022/07/27 10:45:06;;;;;;;;;;;;;;;22.64;51.99;101993.44;5211462;28;20062;-72
2022/07/27 10:47:39;;;;;;;3.50;1.00;;;;;;;21.65;52.75;101996.00;5210228;28;19917;-72
2022/07/27 10:50:10;;;;;;;;;;;;;;;22.35;54.93;101989.72;5209778;28;20065;-72
2022/07/27 10:53:02;;;;;;;4.32;0.95;;;;;;;21.79;55.93;101986.44;5206459;28;19921;-72
2022/07/27 10:55:41;;;;;;;3.88;1.20;;;;;;;21.43;55.32;101984.28;5210817;28;20267;-72
2022/07/27 10:58:12;;;;;;;4.30;0.93;;;;;;;21.17;54.76;101986.34;5207250;28;20030;-73
2022/07/27 11:00:49;;;;;;;3.77;0.90;;;;;;;21.53;56.01;101986.75;5207633;28;20023;-72
2022/07/27 11:03:21;;;;;;;3.72;1.23;;;;;;;21.32;55.99;101985.44;5211511;28;20026;-72
2022/07/27 11:06:02;;;;;;;3.20;0.90;;;;;;;21.43;56.48;101984.28;5209409;28;20052;-72
2022/07/27 11:08:34;;;;;;;3.45;1.00;;;;;;;21.30;54.02;101983.97;5207502;28;20298;-72
2022/07/27 11:11:08;;;;;;;4.15;1.15;;;;;;;21.33;51.85;101989.00;5207574;28;20044;-73
2022/07/27 11:13:39;;;;;;;4.05;1.25;;;;;;;21.35;55.74;101974.47;5210362;28;20045;-72
2022/07/27 11:16:14;;;;;;;2.87;1.10;;;;;;;21.27;54.43;101981.66;5209202;28;20026;-72
2022/07/27 11:18:58;;;;;;;4.25;1.35;;;;;;;21.61;56.64;101987.50;5210623;28;20032;-72
2022/07/27 11:21:35;;;;;;;4.50;0.85;;;;;;;21.56;55.76;101983.72;5194475;28;20030;-73
2022/07/27 11:24:17;;;;;;;8.00;1.20;;;;;;;21.79;55.50;101978.44;5208758;28;20407;-72
2022/07/27 11:26:50;;;;;;;5.40;1.30;;;;;;;21.61;51.30;101984.03;5206573;28;20073;-72
2022/07/27 11:29:23;;;;;;;4.63;1.25;;;;;;;21.67;50.68;101980.66;5209640;28;20034;-72
2022/07/27 11:31:56;;;;;;;3.08;0.93;;;;;;;21.86;51.05;101964.19;5208102;28;20113;-72
2022/07/27 11:34:35;;;;;;;5.25;1.15;;;;;;;22.08;50.16;101965.19;5210846;28;20372;-73
2022/07/27 11:37:21;;;;;;;5.03;1.20;;;;;;;22.20;49.73;101971.00;5209238;28;20121;-72
2022/07/27 11:39:58;;;;;;;3.95;0.93;;;;;;;22.20;48.78;101968.31;5208605;28;20029;-73
2022/07/27 11:42:37;;;;;;;5.93;1.38;;;;;;;22.25;46.92;101968.59;5208962;28;20034;-72
2022/07/27 11:45:08;;;;;;;3.95;1.10;;;;;;;22.23;45.84;101964.44;5207122;28;20029;-72
2022/07/27 11:47:39;;;;;;;3.70;1.00;;;;;;;22.33;47.40;101965.03;5206304;28;20092;-72
2022/07/27 11:50:12;;;;;;;3.97;1.13;;;;;;;22.44;46.15;101964.59;5206743;28;20025;-72
2022/07/27 11:52:43;;;;;;;5.00;0.90;;;;;;;22.44;47.70;101977.94;5207211;28;20033;-72
2022/07/27 11:55:15;;;;;;;3.13;1.00;;;;;;;22.17;46.92;101966.00;5210088;28;20041;-72
2022/07/27 11:57:46;;;;;;;4.83;1.13;;;;;;;22.27;48.84;101971.06;5209897;28;20483;-73